Latest Weather Observations for Esperance Airport

IDW60801

Issued at 11:03 am WST Monday 18 November 2019 (issued every 10 minutes, with the page automatically refreshed every 10 minutes)

About weather observations | Map of weather stations | Latest weather observations for WA | Other Formats
Station Details ID: 009542 Name: ESPERANCE AERO Lat: -33.68 Lon: 121.83 Height: 142.0 m
Data from the previous 72 hours. | See also: Recent months at Esperance Airport
Date/Time
WST
Temp
°C
App
Temp
°C
Dew
Point
°C
Rel
Hum
%
Delta-T
°C
Wind Press
QNH
hPa
Press
MSL
hPa
Rain since
9am
mm
Dir  Spd
km/h
Gust
km/h
Spd
kts
Gust
kts
18/11:00am 19.6 16.6 12.1 62 4.2 ESE 19 30 10 16 1018.2 1017.9 0.0
18/10:30am 19.6 16.8 13.1 66 3.7 SE 20 28 11 15 1018.6 1018.3 0.0
18/10:06am 19.5 16.7 12.5 64 3.9 SE 19 28 10 15 1019.1 1018.8 0.0
18/10:00am 19.1 16.1 11.9 63 4.0 ESE 19 28 10 15 1019.1 1018.8 0.0
18/09:30am 17.6 14.7 12.3 71 2.9 SSE 19 26 10 14 1019.2 1018.9 0.0
18/09:00am 17.4 14.5 12.3 72 2.8 S 19 24 10 13 1019.3 1019.0 0.0
18/08:30am 16.7 13.5 12.0 74 2.6 S 20 24 11 13 1019.5 1019.2 0.0
18/08:00am 16.6 13.8 12.6 77 2.2 SSE 19 24 10 13 1019.3 1019.0 0.0
18/07:30am 16.1 13.1 12.7 80 1.9 S 20 24 11 13 1019.4 1019.1 0.0
18/07:00am 15.8 12.9 12.9 83 1.6 S 20 26 11 14 1019.2 1018.9 0.0
18/06:30am 15.5 13.1 12.6 83 1.6 S 17 22 9 12 1019.2 1018.9 0.0
18/06:00am 15.1 12.4 12.8 86 1.3 S 19 24 10 13 1018.9 1018.6 0.0
18/05:30am 14.8 12.1 12.8 88 1.1 SSW 19 24 10 13 1018.7 1018.4 0.0
18/05:00am 14.8 12.2 13.2 90 0.9 SSW 19 24 10 13 1018.3 1018.0 0.0
18/04:30am 14.7 12.6 13.6 93 0.6 SSW 17 24 9 13 1018.1 1017.8 0.0
18/04:00am 14.8 12.8 14.0 95 0.5 SSW 17 20 9 11 1018.0 1017.7 0.0
18/03:30am 14.7 12.8 14.2 97 0.3 SSW 17 22 9 12 1017.9 1017.6 0.0
18/03:00am 14.7 12.8 14.2 97 0.3 S 17 20 9 11 1017.8 1017.4 0.0
18/02:30am 14.8 12.9 14.3 97 0.3 SSW 17 24 9 13 1017.9 1017.6 0.0
18/02:04am 15.0 13.6 14.5 97 0.3 S 15 20 8 11 1017.7 1017.3 0.0
18/02:00am 15.0 13.2 14.5 97 0.3 S 17 20 9 11 1017.7 1017.3 0.0
18/01:30am 15.2 13.9 14.7 97 0.3 SSW 15 20 8 11 1017.7 1017.3 0.0
18/01:00am 15.3 13.2 14.8 97 0.3 SSW 19 24 10 13 1017.8 1017.4 0.0
18/12:30am 15.3 13.6 14.8 97 0.3 SSW 17 24 9 13 1018.2 1017.9 0.0
18/12:08am 15.4 13.4 14.9 97 0.3 SSW 19 24 10 13 1018.4 1018.1 0.0
18/12:00am 15.4 13.2 14.9 97 0.3 SSW 20 26 11 14 1018.3 1018.0 0.0
 
Date/Time
WST
Temp
°C
App
Temp
°C
Dew
Point
°C
Rel
Hum
%
Delta-T
°C
Wind Press
QNH
hPa
Press
MSL
hPa
Rain since
9am
mm
Dir  Spd
km/h
Gust
km/h
Spd
kts
Gust
kts
17/11:41pm 15.5 13.5 15.0 97 0.3 SSW 19 24 10 13 1018.4 1018.1 0.0
17/11:38pm 15.4 13.4 14.9 97 0.3 SSW 19 24 10 13 1018.4 1018.1 0.0
17/11:30pm 15.4 13.4 14.9 97 0.3 SSW 19 24 10 13 1018.5 1018.2 0.0
17/11:00pm 15.7 14.2 15.2 97 0.3 SSW 17 22 9 12 1018.9 1018.6 0.0
17/10:30pm 15.9 13.8 15.3 96 0.3 SW 20 26 11 14 1018.8 1018.5 0.0
17/10:00pm 16.0 14.2 15.4 96 0.3 SSW 19 24 10 13 1018.9 1018.6 0.0
17/09:30pm 16.2 13.8 15.4 95 0.5 SSW 22 28 12 15 1018.7 1018.4 0.0
17/09:00pm 16.2 13.7 15.2 94 0.6 SSW 22 28 12 15 1018.5 1018.2 0.0
17/08:48pm 16.4 14.0 15.4 94 0.6 SSW 22 28 12 15 1018.4 1018.1 0.0
17/08:30pm 16.5 13.8 15.5 94 0.6 SSW 24 32 13 17 1018.2 1017.9 0.0
17/08:23pm 16.5 14.1 15.5 94 0.6 SSW 22 28 12 15 1018.1 1017.8 0.0
17/08:00pm 16.9 15.0 15.8 93 0.6 SSW 20 28 11 15 1017.9 1017.6 0.0
17/07:55pm 16.9 14.9 15.6 92 0.8 SSW 20 30 11 16 1017.8 1017.4 0.0
17/07:30pm 17.2 14.9 15.7 91 0.9 SSW 22 28 12 15 1017.4 1017.0 0.0
17/07:00pm 17.5 15.2 15.8 90 1.0 SSW 22 28 12 15 1017.0 1016.6 0.0
17/06:30pm 18.1 15.9 15.9 87 1.3 SSW 22 28 12 15 1016.6 1016.2 0.0
17/06:00pm 19.1 16.2 16.1 83 1.8 SSW 26 33 14 18 1016.0 1015.7 0.0
17/05:52pm 19.3 16.4 16.2 82 1.9 SSW 26 33 14 18 1015.8 1015.5 0.0
17/05:30pm 20.4 17.9 16.2 77 2.5 SSW 24 32 13 17 1015.2 1014.9 0.0
17/05:00pm 22.2 19.1 16.5 70 3.5 SSW 28 35 15 19 1014.6 1014.3 0.0
17/04:30pm 23.7 21.1 16.0 62 4.7 SSW 24 32 13 17 1014.6 1014.3 0.0
17/04:00pm 25.4 22.0 15.7 55 5.9 SSW 28 33 15 18 1014.1 1013.8 0.0
17/03:30pm 26.1 22.6 15.5 52 6.5 SSW 28 33 15 18 1014.1 1013.8 0.0
17/03:00pm 27.7 23.1 13.6 42 8.4 SSW 30 39 16 21 1014.0 1013.7 0.0
17/02:30pm 29.9 24.4 12.3 33 10.4 SSW 33 41 18 22 1013.9 1013.6 0.0
17/02:00pm 32.8 27.1 11.3 27 12.6 S 32 39 17 21 1013.4 1013.1 0.0
17/01:30pm 33.9 27.1 9.2 22 14.1 SSW 35 44 19 24 1013.3 1013.0 0.0
17/01:00pm 35.8 31.1 10.8 22 14.8 SSW 26 33 14 18 1013.1 1012.8 0.0
17/12:30pm 37.8 32.0 9.4 18 16.6 SSW 30 39 16 21 1012.8 1012.5 0.0
17/12:00pm 40.8 34.3 8.1 14 19.0 SSW 32 43 17 23 1012.8 1012.5 0.0
17/11:30am 41.3 36.9 4.9 11 20.2 SW 17 30 9 16 1012.9 1012.6 0.0
17/11:00am 41.5 36.3 3.7 10 20.6 WSW 20 37 11 20 1013.1 1012.8 0.0
17/10:30am 40.4 35.8 5.5 12 19.4 W 19 26 10 14 1013.5 1013.2 0.0
17/10:00am 38.7 34.3 6.4 14 18.1 WNW 19 28 10 15 1013.8 1013.5 0.0
17/09:30am 36.4 32.0 6.6 16 16.6 NW 19 24 10 13 1014.1 1013.8 0.0
17/09:00am 34.5 29.9 8.3 20 14.8 NNW 22 30 12 16 1014.4 1014.1 0.0
17/08:30am 31.6 26.7 8.6 24 12.9 NNW 24 32 13 17 1014.7 1014.4 0.0
17/08:00am 29.9 26.0 9.4 28 11.5 NNW 20 26 11 14 1014.9 1014.6 0.0
17/07:30am 27.4 24.5 9.7 33 9.9 NNW 15 26 8 14 1015.1 1014.8 0.0
17/07:00am 24.3 17.8 10.2 41 7.8 N 35 44 19 24 1014.6 1014.3 0.0
17/06:30am 21.6 15.6 10.7 50 6.0 N 33 44 18 24 1014.5 1014.2 0.0
17/06:00am 19.8 13.4 10.8 56 4.9 NNE 35 44 19 24 1014.5 1014.2 0.0
17/05:30am 18.5 12.5 10.8 61 4.2 NNE 33 44 18 24 1014.6 1014.3 0.0
17/05:00am 17.7 11.9 10.8 64 3.7 NNE 32 43 17 23 1014.7 1014.4 0.0
17/04:30am 17.4 12.4 11.0 66 3.5 NNE 28 41 15 22 1014.7 1014.4 0.0
17/04:00am 17.3 13.1 11.1 67 3.4 NNE 24 33 13 18 1014.8 1014.5 0.0
17/03:30am 17.2 12.6 11.0 67 3.4 NNE 26 33 14 18 1014.7 1014.4 0.0
17/03:00am 17.2 13.0 11.2 68 3.3 NNE 24 33 13 18 1014.8 1014.5 0.0
17/02:30am 17.4 13.2 11.2 67 3.4 NNE 24 35 13 19 1014.8 1014.5 0.0
17/02:00am 17.3 12.8 11.3 68 3.3 NNE 26 33 14 18 1015.0 1014.7 0.0
17/01:30am 17.2 13.1 11.5 69 3.1 NNE 24 33 13 18 1015.0 1014.7 0.0
17/01:00am 17.1 13.0 11.4 69 3.1 NNE 24 32 13 17 1015.3 1015.0 0.0
17/12:30am 17.3 13.2 11.3 68 3.3 NNE 24 30 13 16 1015.5 1015.2 0.0
17/12:00am 17.8 13.3 11.4 66 3.5 NE 26 35 14 19 1015.7 1015.4 0.0
 
Date/Time
WST
Temp
°C
App
Temp
°C
Dew
Point
°C
Rel
Hum
%
Delta-T
°C
Wind Press
QNH
hPa
Press
MSL
hPa
Rain since
9am
mm
Dir  Spd
km/h
Gust
km/h
Spd
kts
Gust
kts
16/11:30pm 18.0 13.8 11.1 64 3.8 NE 24 37 13 20 1016.0 1015.7 0.0
16/11:00pm 18.2 13.9 10.8 62 4.0 NE 24 39 13 21 1016.1 1015.8 0.0
16/10:30pm 18.3 14.4 10.9 62 4.0 NE 22 33 12 18 1016.3 1016.0 0.0
16/10:00pm 18.4 14.2 11.0 62 4.0 NE 24 35 13 19 1016.5 1016.1 0.0
16/09:30pm 18.9 14.3 11.2 61 4.2 NE 26 39 14 21 1016.6 1016.2 0.0
16/09:00pm 19.7 15.1 11.2 58 4.7 NE 26 41 14 22 1016.6 1016.2 0.0
16/08:30pm 20.4 16.4 11.9 58 4.8 ENE 24 33 13 18 1016.6 1016.2 0.0
16/08:00pm 21.0 16.9 11.6 55 5.2 ENE 24 35 13 19 1016.5 1016.1 0.0
16/07:30pm 22.2 17.9 11.9 52 5.8 ENE 26 43 14 23 1016.2 1015.9 0.0
16/07:00pm 23.5 19.5 11.9 48 6.6 E 24 37 13 20 1016.0 1015.7 0.0
16/06:30pm 25.3 20.3 12.2 44 7.6 E 30 43 16 23 1015.9 1015.6 0.0
16/06:00pm 27.1 22.8 12.0 39 8.7 E 26 43 14 23 1015.8 1015.5 0.0
16/05:30pm 28.8 24.3 11.4 34 10.1 E 26 37 14 20 1015.3 1015.0 0.0
16/05:00pm 29.1 24.2 12.5 36 9.8 ESE 30 39 16 21 1015.0 1014.7 0.0
16/04:30pm 29.6 24.6 13.4 37 9.7 ESE 32 39 17 21 1015.1 1014.8 0.0
16/04:00pm 28.8 24.4 14.2 40 8.8 ESE 30 35 16 19 1015.2 1014.9 0.0
16/03:30pm 28.6 23.6 14.1 41 8.7 ESE 33 39 18 21 1015.4 1015.1 0.0
16/03:00pm 29.8 25.1 14.4 39 9.4 ESE 32 39 17 21 1015.7 1015.4 0.0
16/02:30pm 30.0 25.6 14.1 37 9.6 ESE 30 35 16 19 1016.2 1015.9 0.0
16/02:00pm 30.5 26.5 14.2 37 9.9 ESE 28 37 15 20 1016.8 1016.4 0.0
16/01:30pm 29.5 25.0 13.7 38 9.5 ESE 30 39 16 21 1016.9 1016.5 0.0
16/01:00pm 29.8 24.8 13.5 36 9.8 SE 32 39 17 21 1017.2 1016.8 0.0
16/12:30pm 30.9 26.1 12.8 33 10.8 SE 30 39 16 21 1017.5 1017.1 0.0
16/12:00pm 31.2 26.4 8.8 25 12.5 E 24 35 13 19 1017.7 1017.3 0.0
16/11:30am 29.8 25.0 8.8 27 11.7 E 24 37 13 20 1018.3 1018.0 0.0
16/11:00am 28.4 24.2 9.6 31 10.5 ENE 22 33 12 18 1018.8 1018.5 0.0
16/10:30am 27.0 23.3 10.2 35 9.4 ENE 20 32 11 17 1019.4 1019.1 0.0
16/10:00am 25.1 21.6 10.9 41 8.0 ENE 20 32 11 17 1020.0 1019.7 0.0
16/09:30am 23.6 20.4 11.3 46 6.9 ENE 19 26 10 14 1020.4 1020.1 0.0
16/09:00am 21.3 17.5 11.3 53 5.6 ENE 22 30 12 16 1020.7 1020.4 0.0
16/08:30am 20.4 16.6 11.3 56 5.0 ENE 22 33 12 18 1021.0 1020.7 0.0
16/08:00am 18.0 14.2 11.1 64 3.7 ENE 22 35 12 19 1021.4 1021.1 0.0
16/07:30am 17.8 14.6 11.8 68 3.3 E 20 30 11 16 1021.5 1021.2 0.0
16/07:00am 16.1 12.9 11.3 73 2.6 E 19 28 10 15 1021.7 1021.4 0.0
16/06:30am 14.0 11.0 10.6 80 1.8 E 17 24 9 13 1021.9 1021.6 0.0
16/06:00am 12.2 9.0 10.1 87 1.1 ESE 17 20 9 11 1021.7 1021.4 0.0
16/05:30am 11.0 8.4 9.4 90 0.8 ESE 13 17 7 9 1021.3 1021.0 0.0
16/05:00am 10.6 8.3 9.0 90 0.8 ENE 11 15 6 8 1021.0 1020.7 0.0
16/04:30am 11.1 8.5 9.5 90 0.8 NE 13 19 7 10 1020.3 1020.0 0.0
16/04:00am 10.8 8.2 9.2 90 0.8 NE 13 17 7 9 1020.3 1020.0 0.0
16/03:30am 10.9 8.7 9.3 90 0.8 ENE 11 17 6 9 1020.4 1020.1 0.0
16/03:00am 11.1 8.5 9.4 89 0.9 NE 13 19 7 10 1020.5 1020.2 0.0
16/02:30am 11.3 8.7 9.4 88 1.0 ENE 13 19 7 10 1020.5 1020.2 0.0
16/02:00am 11.7 8.8 9.6 87 1.1 E 15 20 8 11 1020.7 1020.4 0.0
16/01:30am 11.8 8.9 9.5 86 1.2 E 15 24 8 13 1020.9 1020.6 0.0
16/01:00am 12.0 8.7 9.6 85 1.2 E 17 24 9 13 1021.0 1020.7 0.0
16/12:30am 12.4 9.2 9.8 84 1.3 E 17 22 9 12 1021.1 1020.8 0.0
16/12:00am 12.7 9.1 9.7 82 1.5 ENE 19 28 10 15 1020.9 1020.6 0.0
 
Date/Time
WST
Temp
°C
App
Temp
°C
Dew
Point
°C
Rel
Hum
%
Delta-T
°C
Wind Press
QNH
hPa
Press
MSL
hPa
Rain since
9am
mm
Dir  Spd
km/h
Gust
km/h
Spd
kts
Gust
kts
15/11:30pm 13.1 9.3 9.9 81 1.7 E 20 30 11 16 1021.1 1020.8 0.0
15/11:00pm 13.2 8.6 9.8 80 1.8 E 24 35 13 19 1020.9 1020.6 0.0
15/10:30pm 13.5 9.3 9.7 78 2.0 E 22 32 12 17 1020.8 1020.5 0.0
15/10:00pm 14.0 9.1 10.0 77 2.1 E 26 35 14 19 1020.9 1020.6 0.0
15/09:30pm 14.4 9.8 9.8 74 2.4 E 24 35 13 19 1021.1 1020.8 0.0
15/09:00pm 14.7 10.7 10.3 75 2.3 E 22 32 12 17 1021.1 1020.8 0.0
15/08:30pm 14.6 10.7 10.8 78 2.0 ESE 22 28 12 15 1020.9 1020.6 0.0
15/08:00pm 14.9 10.6 10.9 77 2.1 ESE 24 32 13 17 1020.7 1020.4 0.0
15/07:30pm 15.1 10.8 10.7 75 2.3 ESE 24 32 13 17 1020.2 1019.9 0.0
15/07:00pm 15.5 10.5 11.1 75 2.4 ESE 28 33 15 18 1019.7 1019.4 0.0
15/06:30pm 16.1 11.1 11.1 72 2.7 ESE 28 37 15 20 1019.7 1019.4 0.0
15/06:00pm 16.9 11.3 11.4 70 3.0 ESE 32 39 17 21 1019.7 1019.4 0.0
15/05:30pm 18.3 13.0 11.4 64 3.8 SE 30 39 16 21 1019.5 1019.2 0.0
15/05:00pm 19.2 14.3 11.3 60 4.3 ESE 28 37 15 20 1019.4 1019.1 0.0
15/04:30pm 20.3 15.0 11.2 56 5.0 ESE 30 39 16 21 1019.2 1018.9 0.0
15/04:00pm 20.8 15.4 10.9 53 5.4 SE 30 37 16 20 1019.3 1019.0 0.0
15/03:30pm 21.7 16.7 11.1 51 5.9 ESE 28 39 15 21 1019.4 1019.1 0.0
15/03:00pm 21.6 16.5 11.9 54 5.5 SE 30 37 16 20 1019.3 1019.0 0.0
15/02:30pm 21.3 15.6 11.3 53 5.6 SE 32 41 17 22 1019.7 1019.4 0.0
15/02:00pm 21.6 15.9 11.3 52 5.7 SSE 32 39 17 21 1020.0 1019.7 0.0
15/01:30pm 21.6 16.0 11.6 53 5.6 SSE 32 39 17 21 1020.2 1019.9 0.0
15/01:00pm 22.3 17.9 11.7 51 6.0 SSE 26 35 14 19 1020.2 1019.9 0.0
15/12:30pm 21.9 18.1 11.3 51 5.9 SSE 22 32 12 17 1020.4 1020.1 0.0
15/12:00pm 23.1 19.8 10.9 46 6.8 ESE 19 28 10 15 1020.5 1020.2 0.0
15/11:30am 21.8 18.6 11.2 51 5.9 ESE 19 30 10 16 1020.8 1020.5 0.0

Other formats

Comma delimited format used in spreadsheet applications
http://www.bom.gov.au/fwo/IDW60801/IDW60801.95638.axf

JavaScript Object Notation format (JSON) in row-major order
http://www.bom.gov.au/fwo/IDW60801/IDW60801.95638.json

Data quality

Most of these data are generated automatically and are frequently updated. Quality checks on data are not normally performed. It is possible for incorrect values to appear. Refer to information at About Latest Weather Observations and please check the disclaimer before using these data.